Time;durP1;ratioP1;P1;durP2;ratioP2;P2;SDS_P1;SDS_P2;PMS_P1;PMS_P2;Temp;Humidity;BMP_temperature;BMP_pressure;BME280_temperature;BME280_humidity;BME280_pressure;Samples;Min_cycle;Max_cycle;Signal;HPM_P1;HPM_P2
2023/04/03 00:00:41;;;;;;;5.43;0.98;;;;;;;-146.25;86.08;52388.47;2071911;28;20038;-71
2023/04/03 00:01:43;;;;;;;3.17;0.65;;;;;;;-146.25;85.43;52396.59;2063657;28;34148;-71
2023/04/03 00:02:47;;;;;;;5.32;0.60;;;;;;;-146.25;86.40;52406.72;2064264;28;21811;-71
2023/04/03 00:03:52;;;;;;;3.22;0.43;;;;;;;-146.25;86.29;52388.47;2063228;28;38592;-71
2023/04/03 00:04:54;;;;;;;3.53;0.90;;;;;;;-146.25;86.36;52376.31;2056397;28;36623;-71
2023/04/03 00:05:56;;;;;;;4.15;0.70;;;;;;;-146.25;86.29;52392.53;2064403;28;35354;-71
2023/04/03 00:06:57;;;;;;;6.55;0.70;;;;;;;-146.25;86.79;52388.47;2072516;28;33834;-71
2023/04/03 00:08:01;;;;;;;4.35;0.60;;;;;;;-146.25;86.59;52388.47;2072743;28;20037;-71
2023/04/03 00:09:03;;;;;;;5.22;0.77;;;;;;;-146.25;86.02;52354.00;2072470;28;37221;-71
2023/04/03 00:10:06;;;;;;;4.13;0.70;;;;;;;-146.25;85.93;52437.13;2072720;28;20907;-70
2023/04/03 00:11:08;;;;;;;4.70;0.70;;;;;;;-146.25;86.01;52374.28;2072196;28;36073;-71
2023/04/03 00:12:12;;;;;;;5.05;0.60;;;;;;;-146.25;86.34;52427.00;2064172;28;20047;-71
2023/04/03 00:13:14;;;;;;;2.85;0.50;;;;;;;-146.25;86.59;52374.28;2064013;28;36246;-71
2023/04/03 00:14:16;;;;;;;5.65;0.55;;;;;;;-146.25;85.74;52351.97;2072334;28;35417;-71
2023/04/03 00:15:18;;;;;;;4.80;0.70;;;;;;;-146.25;85.92;52386.44;2072420;28;31642;-71
2023/04/03 00:16:19;;;;;;;3.08;0.70;;;;;;;-146.25;86.11;52376.31;2072636;28;20700;-71
2023/04/03 00:17:22;;;;;;;6.65;0.77;;;;;;;-146.25;85.90;52400.63;2073013;28;20043;-71
2023/04/03 00:18:24;;;;;;;3.30;0.75;;;;;;;-146.25;85.92;52388.47;2071228;28;35391;-71
2023/04/03 00:19:26;;;;;;;7.70;0.90;;;;;;;-146.25;86.32;52370.22;2071496;28;33108;-71
2023/04/03 00:20:28;;;;;;;4.88;0.68;;;;;;;-146.25;86.92;52382.38;2072081;28;34918;-71
2023/04/03 00:21:30;;;;;;;4.57;0.68;;;;;;;-146.25;86.83;52388.47;2071894;28;35773;-71
2023/04/03 00:22:32;;;;;;;6.15;0.70;;;;;;;-146.25;86.05;52388.47;2072901;28;20901;-71
2023/04/03 00:23:35;;;;;;;4.88;0.70;;;;;;;-146.25;86.37;52370.22;2072055;28;37563;-71
2023/04/03 00:24:36;;;;;;;9.40;0.70;;;;;;;-146.25;86.52;52384.41;2064409;28;20924;-71
2023/04/03 00:25:41;;;;;;;5.18;0.60;;;;;;;-146.25;86.26;52429.03;2064505;28;20086;-71
2023/04/03 00:26:42;;;;;;;6.97;0.52;;;;;;;-146.25;86.91;52414.84;2072266;28;35662;-71
2023/04/03 00:27:44;;;;;;;5.47;0.70;;;;;;;-146.25;86.83;52410.78;2071790;28;36862;-71
2023/04/03 00:28:48;;;;;;;3.58;0.50;;;;;;;-146.25;87.07;52402.66;2063862;28;20903;-71
2023/04/03 00:29:50;;;;;;;4.93;0.90;;;;;;;-146.25;87.12;52402.66;2063604;28;25782;-71
2023/04/03 00:30:55;;;;;;;9.70;0.55;;;;;;;-146.25;87.35;52388.47;2072486;28;38676;-71
2023/04/03 00:31:57;;;;;;;2.25;0.40;;;;;;;-146.25;87.70;52422.94;2063649;28;20838;-71
2023/04/03 00:33:00;;;;;;;3.03;0.70;;;;;;;-146.25;87.78;52376.31;2063981;28;30819;-71
2023/04/03 00:34:02;;;;;;;4.95;0.70;;;;;;;-146.25;87.51;52388.47;2071396;28;27603;-70
2023/04/03 00:35:05;;;;;;;3.03;0.40;;;;;;;-146.25;87.42;52364.13;2071212;28;35148;-71
2023/04/03 00:36:10;;;;;;;2.65;0.52;;;;;;;-146.25;87.94;52386.44;2063234;28;32978;-71
2023/04/03 00:37:11;;;;;;;3.65;0.50;;;;;;;-146.25;88.11;52390.50;2055330;28;35019;-71
2023/04/03 00:38:14;;;;;;;3.38;0.43;;;;;;;-146.25;87.90;52418.88;2048043;28;24950;-71
2023/04/03 00:39:18;;;;;;;5.80;0.68;;;;;;;-146.25;87.86;52364.13;2063572;28;27383;-71
2023/04/03 00:40:23;;;;;;;5.90;0.50;;;;;;;-146.25;88.18;52376.31;2071577;28;20811;-69
2023/04/03 00:41:27;;;;;;;5.53;0.50;;;;;;;-146.25;87.96;52380.38;2071786;28;20038;-71
2023/04/03 00:42:29;;;;;;;3.05;0.50;;;;;;;-146.25;87.75;52388.47;2062874;28;35005;-70
2023/04/03 00:43:32;;;;;;;5.03;0.60;;;;;;;-146.25;87.85;52402.66;2063763;28;25738;-71
2023/04/03 00:44:33;;;;;;;5.05;0.40;;;;;;;-146.25;87.88;52416.84;2063231;28;28586;-70
2023/04/03 00:45:43;;;;;;;4.85;0.50;;;;;;;-146.25;87.94;52386.44;2063942;28;22296;-71
2023/04/03 00:46:45;;;;;;;3.65;0.63;;;;;;;-146.25;87.86;52410.78;2072664;28;20812;-72
2023/04/03 00:47:49;;;;;;;4.50;0.55;;;;;;;-146.25;87.92;52392.53;2063703;28;20899;-71
2023/04/03 00:48:54;;;;;;;5.57;0.68;;;;;;;-146.25;87.65;52380.38;2047824;28;23996;-71
2023/04/03 00:49:57;;;;;;;6.30;0.88;;;;;;;-146.25;88.30;52414.84;2057022;28;20051;-71
2023/04/03 00:51:00;;;;;;;2.47;0.47;;;;;;;-146.25;88.46;52349.94;2063228;28;40944;-71
2023/04/03 00:52:02;;;;;;;7.25;0.90;;;;;;;-146.25;88.44;52382.38;2064404;28;20031;-71
2023/04/03 00:53:08;;;;;;;4.63;0.77;;;;;;;-146.25;88.74;52386.44;2055320;28;20059;-71
2023/04/03 00:54:10;;;;;;;3.28;0.68;;;;;;;-146.25;88.69;52414.84;2056570;28;25535;-71
2023/04/03 00:55:14;;;;;;;5.63;0.73;;;;;;;-146.25;89.26;52392.53;2071722;28;25766;-71
2023/04/03 00:56:22;;;;;;;6.72;0.80;;;;;;;-146.25;88.79;52392.53;2063940;28;20081;-71
2023/04/03 00:57:26;;;;;;;4.65;1.15;;;;;;;-146.25;88.79;52384.41;2065159;28;23260;-71
2023/04/03 00:58:37;;;;;;;3.22;0.52;;;;;;;-146.25;88.51;52420.91;2072178;28;26505;-71
2023/04/03 00:59:45;;;;;;;2.70;0.60;;;;;;;-146.25;88.91;52410.78;2063605;28;30409;-71
2023/04/03 01:00:57;;;;;;;6.20;0.50;;;;;;;-146.25;88.84;52392.53;2057381;28;26232;-71
2023/04/03 01:02:00;;;;;;;2.80;0.50;;;;;;;-146.25;89.00;52402.66;2057804;28;20070;-71
2023/04/03 01:03:02;;;;;;;6.80;0.75;;;;;;;-146.25;89.30;52400.63;2064311;28;20935;-72
2023/04/03 01:04:06;;;;;;;5.88;0.75;;;;;;;-146.25;89.56;52418.88;2071717;28;20051;-71
2023/04/03 01:05:10;;;;;;;2.72;0.30;;;;;;;-146.25;89.61;52396.59;2071789;28;20054;-71
2023/04/03 01:06:16;;;;;;;3.90;0.60;;;;;;;-146.25;90.03;52384.41;2063348;28;26173;-71
2023/04/03 01:07:27;;;;;;;4.55;0.55;;;;;;;-146.25;90.65;52378.34;2056093;28;20047;-71
2023/04/03 01:08:29;;;;;;;;;;;;;;;-146.25;90.69;52394.56;2065313;28;24901;-72
2023/04/03 01:09:33;;;;;;;3.22;0.52;;;;;;;-146.25;91.28;52370.22;2063611;28;20044;-72
2023/04/03 01:10:35;;;;;;;3.13;0.50;;;;;;;-146.25;90.70;52396.59;2055852;28;20039;-72
2023/04/03 01:11:37;;;;;;;4.40;1.00;;;;;;;-146.25;90.80;52439.16;2063821;28;25844;-72
2023/04/03 01:12:42;;;;;;;3.95;0.65;;;;;;;-146.25;91.21;52362.13;2063082;28;25353;-72
2023/04/03 01:13:47;;;;;;;5.57;0.85;;;;;;;-146.25;91.70;52400.63;2064350;28;31199;-72
2023/04/03 01:14:53;;;;;;;9.85;1.00;;;;;;;-146.25;91.52;52378.34;2071265;28;20247;-72
2023/04/03 01:15:56;;;;;;;3.72;0.60;;;;;;;-146.25;91.15;52400.63;2063554;28;20043;-72
2023/04/03 01:16:58;;;;;;;6.35;0.80;;;;;;;-146.25;91.99;52390.50;2064803;28;20050;-72
2023/04/03 01:18:00;;;;;;;6.60;0.68;;;;;;;-146.25;92.33;52388.47;2071996;28;20042;-72
2023/04/03 01:19:08;;;;;;;5.28;0.77;;;;;;;-146.25;92.65;52433.06;2071745;28;20167;-72
2023/04/03 01:20:41;;;;;;;5.60;0.73;;;;;;;-146.25;92.60;52396.59;2055550;28;20054;-73
2023/04/03 01:22:18;;;;;;;6.22;0.85;;;;;;;-146.25;92.48;52416.84;2056277;28;33773;-72
2023/04/03 01:23:32;;;;;;;5.15;0.80;;;;;;;-146.25;92.05;52392.53;2060056;28;20200;-73
2023/04/03 01:24:38;;;;;;;3.55;0.70;;;;;;;-146.25;92.08;52374.28;2056852;28;20043;-72
2023/04/03 01:25:48;;;;;;;6.03;0.77;;;;;;;-146.25;92.08;52416.84;2065928;28;20169;-72
2023/04/03 01:26:53;;;;;;;6.70;1.08;;;;;;;-146.25;92.00;52374.28;2061619;28;20035;-72
2023/04/03 01:27:55;;;;;;;3.78;0.65;;;;;;;-146.25;92.07;52378.34;2056507;28;32175;-72
2023/04/03 01:28:59;;;;;;;7.57;0.90;;;;;;;-146.25;92.30;52412.81;2063515;28;20035;-72
2023/04/03 01:30:02;;;;;;;5.45;0.85;;;;;;;-146.25;92.38;52400.63;2063184;28;20043;-72
2023/04/03 01:31:46;;;;;;;3.63;0.70;;;;;;;-146.25;92.38;52354.00;2063242;28;20050;-72
2023/04/03 01:32:48;;;;;;;3.97;0.52;;;;;;;-146.25;92.43;52368.19;2068661;28;34394;-72
2023/04/03 01:33:51;;;;;;;3.83;0.80;;;;;;;-146.25;92.74;52408.75;2063031;28;26451;-73
2023/04/03 01:34:52;;;;;;;5.50;0.90;;;;;;;-146.25;92.79;52376.31;2055836;28;20036;-73
2023/04/03 01:35:56;;;;;;;4.38;0.85;;;;;;;-146.25;92.79;52384.41;2055176;28;20054;-72
2023/04/03 01:36:58;;;;;;;4.68;0.80;;;;;;;-146.25;92.88;52400.63;2055527;28;20039;-73
2023/04/03 01:38:00;;;;;;;5.20;0.88;;;;;;;-146.25;92.86;52372.25;2063189;28;20070;-72
2023/04/03 01:39:02;;;;;;;6.70;1.02;;;;;;;-146.25;93.34;52410.78;2063350;28;20042;-72
2023/04/03 01:40:06;;;;;;;4.40;0.85;;;;;;;-146.25;93.13;52374.28;2063744;28;20046;-72
2023/04/03 01:41:08;;;;;;;6.18;0.93;;;;;;;-146.25;93.57;52376.31;2063898;28;20936;-72
2023/04/03 01:42:11;;;;;;;3.67;0.55;;;;;;;-146.25;93.62;52366.16;2055362;28;20046;-72
2023/04/03 01:43:16;;;;;;;7.90;1.15;;;;;;;-146.25;93.03;52414.84;2063860;28;20035;-72
2023/04/03 01:44:20;;;;;;;4.10;0.90;;;;;;;-146.25;93.42;52429.03;2062750;28;37647;-72
2023/04/03 01:45:24;;;;;;;4.88;0.75;;;;;;;-146.25;93.54;52408.75;2064280;28;20051;-72
2023/04/03 01:46:26;;;;;;;2.88;0.60;;;;;;;-146.25;93.54;52396.59;2071529;28;20134;-72
2023/04/03 01:47:28;;;;;;;4.53;0.80;;;;;;;-146.25;93.60;52378.34;2071828;28;26663;-72
2023/04/03 01:48:33;;;;;;;7.50;0.73;;;;;;;-146.25;93.49;52424.97;2055108;28;20219;-71
2023/04/03 01:49:35;;;;;;;6.25;1.02;;;;;;;-146.25;93.10;52408.75;2056055;28;25906;-71
2023/04/03 01:50:37;;;;;;;5.22;1.45;;;;;;;-146.25;92.98;52394.56;2063473;28;20043;-72
2023/04/03 01:51:41;;;;;;;4.35;0.80;;;;;;;-146.25;93.48;52372.25;2063325;28;20035;-72
2023/04/03 01:52:43;;;;;;;4.10;1.10;;;;;;;-146.25;93.48;52382.38;2062964;28;31303;-71
2023/04/03 01:53:45;;;;;;;5.45;0.80;;;;;;;-146.25;93.96;52351.97;2071115;28;26537;-71
2023/04/03 01:54:50;;;;;;;7.03;0.80;;;;;;;-146.25;93.59;52388.47;2071553;28;20046;-71
2023/04/03 01:55:52;;;;;;;8.57;1.00;;;;;;;-146.25;93.79;52406.72;2063572;28;20058;-71
2023/04/03 01:56:54;;;;;;;4.97;0.93;;;;;;;-146.25;93.85;52400.63;2063442;28;20851;-71
2023/04/03 01:57:56;;;;;;;2.95;0.60;;;;;;;-146.25;94.33;52414.84;2063264;28;20795;-71
2023/04/03 01:58:58;;;;;;;5.72;1.33;;;;;;;-146.25;93.83;52386.44;2071197;28;20495;-71
2023/04/03 02:00:00;;;;;;;6.85;0.63;;;;;;;-146.25;93.84;52408.75;2071391;28;20042;-71
2023/04/03 02:01:05;;;;;;;6.65;1.05;;;;;;;-146.25;93.70;52396.59;2070083;28;20058;-71
2023/04/03 02:02:07;;;;;;;3.95;0.68;;;;;;;-146.25;93.84;52376.31;2071260;28;22726;-71
2023/04/03 02:03:10;;;;;;;6.43;0.88;;;;;;;-146.25;93.72;52424.97;2063074;28;20043;-71
2023/04/03 02:04:15;;;;;;;4.75;0.85;;;;;;;-146.25;93.98;52356.03;2055907;28;20253;-71
2023/04/03 02:05:16;;;;;;;7.93;0.95;;;;;;;-146.25;93.75;52392.53;2063353;28;33022;-71
2023/04/03 02:06:18;;;;;;;7.50;0.90;;;;;;;-146.25;93.90;52408.75;2071704;28;30495;-71
2023/04/03 02:07:22;;;;;;;7.55;0.98;;;;;;;-146.25;93.67;52402.66;2062922;28;20051;-70
2023/04/03 02:08:24;;;;;;;6.55;0.93;;;;;;;-146.25;93.69;52368.19;2063026;28;29732;-71
2023/04/03 02:09:26;;;;;;;5.45;0.80;;;;;;;-146.25;93.83;52412.81;2062943;28;29128;-71
2023/04/03 02:10:28;;;;;;;5.70;0.80;;;;;;;-146.25;93.73;52354.00;2063146;28;33364;-71
2023/04/03 02:11:31;;;;;;;7.60;1.20;;;;;;;-146.25;93.52;52396.59;2062563;28;20126;-71
2023/04/03 02:12:33;;;;;;;4.53;0.75;;;;;;;-146.25;93.54;52412.81;2062893;28;25878;-71
2023/04/03 02:13:35;;;;;;;10.68;1.23;;;;;;;-146.25;93.55;52390.50;2054910;28;20834;-70
2023/04/03 02:14:36;;;;;;;3.15;0.50;;;;;;;-146.25;93.52;52392.53;2055176;28;20187;-70
2023/04/03 02:15:39;;;;;;;3.33;0.80;;;;;;;-146.25;93.41;52374.28;2062904;28;29287;-70
2023/04/03 02:16:41;;;;;;;7.60;1.17;;;;;;;-146.25;93.95;52416.84;2070408;28;36494;-71
2023/04/03 02:17:43;;;;;;;4.70;0.77;;;;;;;-146.25;94.03;52416.84;2062904;28;27959;-71
2023/04/03 02:18:45;;;;;;;8.45;0.68;;;;;;;-146.25;94.04;52431.06;2063310;28;20843;-70
2023/04/03 02:19:49;;;;;;;6.68;1.17;;;;;;;-146.25;93.88;52445.25;2072167;28;20042;-71
2023/04/03 02:20:51;;;;;;;4.55;0.95;;;;;;;-146.25;94.13;52368.19;2063130;28;20152;-70
2023/04/03 02:21:53;;;;;;;6.65;0.88;;;;;;;-146.25;93.88;52354.00;2062857;28;23172;-71
2023/04/03 02:22:55;;;;;;;6.38;1.10;;;;;;;-146.25;93.64;52382.38;2063625;28;26141;-71
2023/04/03 02:23:56;;;;;;;9.38;0.70;;;;;;;-146.25;94.02;52406.72;2070941;28;28948;-71
2023/04/03 02:24:58;;;;;;;4.20;0.90;;;;;;;-146.25;94.07;52368.19;2072004;28;20058;-70
2023/04/03 02:26:11;;;;;;;8.40;1.00;;;;;;;-146.25;93.75;52349.94;2071572;28;34386;-70
2023/04/03 02:27:13;;;;;;;6.15;0.90;;;;;;;-146.25;93.75;52400.63;2071784;28;28614;-70
2023/04/03 02:28:15;;;;;;;6.30;0.95;;;;;;;-146.25;93.59;52382.38;2071404;28;27505;-70
2023/04/03 02:29:17;;;;;;;4.40;0.88;;;;;;;-146.25;93.71;52410.78;2063193;28;26837;-70
2023/04/03 02:30:18;;;;;;;10.85;1.40;;;;;;;-146.25;93.61;52400.63;2063084;28;27094;-70
2023/04/03 02:31:20;;;;;;;7.00;1.08;;;;;;;-146.25;94.10;52376.31;2071037;28;24779;-70
2023/04/03 02:32:22;;;;;;;7.35;1.02;;;;;;;-146.25;94.05;52388.47;2071110;28;20109;-70
2023/04/03 02:33:25;;;;;;;5.60;0.82;;;;;;;-146.25;94.05;52400.63;2070868;28;20046;-70
2023/04/03 02:34:26;;;;;;;5.53;1.00;;;;;;;-146.25;94.05;52384.41;2062909;28;20046;-70
2023/04/03 02:35:28;;;;;;;4.93;0.93;;;;;;;-146.25;93.59;52441.19;2054956;28;20071;-70
2023/04/03 02:36:32;;;;;;;5.57;1.08;;;;;;;-146.25;93.57;52392.53;2055279;28;20036;-70
2023/04/03 02:37:37;;;;;;;5.32;1.05;;;;;;;-146.25;93.94;52378.34;2063880;28;20843;-70
2023/04/03 02:38:39;;;;;;;5.40;1.10;;;;;;;-146.25;94.02;52392.53;2063117;28;20173;-70
2023/04/03 02:39:41;;;;;;;4.10;0.77;;;;;;;-146.25;94.33;52370.22;2063263;28;24618;-70
2023/04/03 02:40:43;;;;;;;3.30;0.85;;;;;;;-146.25;93.88;52418.88;2071073;28;20050;-70
2023/04/03 02:41:44;;;;;;;3.00;0.80;;;;;;;-146.25;93.94;52447.28;2063872;28;20046;-70
2023/04/03 02:42:52;;;;;;;9.60;1.35;;;;;;;-146.25;94.05;52349.94;2064553;28;21001;-70
2023/04/03 02:43:55;;;;;;;3.17;0.77;;;;;;;-146.25;94.29;52398.59;2064775;28;20832;-70
2023/04/03 02:44:56;;;;;;;5.07;0.95;;;;;;;-146.25;94.33;52392.53;2064359;28;23548;-70
2023/04/03 02:46:00;;;;;;;7.82;1.20;;;;;;;-146.25;94.19;52406.72;2064525;28;20050;-70
2023/04/03 02:47:02;;;;;;;8.77;1.15;;;;;;;-146.25;94.54;52396.59;2073334;28;22166;-70
2023/04/03 02:48:04;;;;;;;5.45;1.02;;;;;;;-146.25;94.55;52366.16;2064614;28;29133;-70
2023/04/03 02:49:06;;;;;;;7.57;1.13;;;;;;;-146.25;94.63;52376.31;2056459;28;20043;-70
2023/04/03 02:50:08;;;;;;;6.47;1.15;;;;;;;-146.25;94.56;52360.09;2064892;28;20035;-70
2023/04/03 02:51:10;;;;;;;6.93;1.25;;;;;;;-146.25;94.38;52402.66;2073008;28;20042;-70
2023/04/03 02:52:14;;;;;;;5.43;1.33;;;;;;;-146.25;94.38;52384.41;2073638;28;20884;-69
2023/04/03 02:53:16;;;;;;;4.47;0.93;;;;;;;-146.25;94.76;52416.84;2064186;28;20039;-70
2023/04/03 02:54:17;;;;;;;5.53;1.10;;;;;;;-146.25;95.10;52429.03;2056337;28;20901;-70
2023/04/03 02:55:24;;;;;;;4.90;1.13;;;;;;;-146.25;94.84;52412.81;2056839;28;20094;-70
2023/04/03 02:56:30;;;;;;;6.70;1.30;;;;;;;-146.25;95.00;52402.66;2064508;28;20043;-70
2023/04/03 02:57:32;;;;;;;6.78;1.15;;;;;;;-146.25;95.05;52398.59;2072381;28;20050;-70
2023/04/03 02:58:34;;;;;;;5.45;1.27;;;;;;;-146.25;95.02;52360.09;2072763;28;28218;-70
2023/04/03 02:59:40;;;;;;;8.48;1.60;;;;;;;-146.25;95.52;52414.84;2072424;28;20046;-69
2023/04/03 03:00:43;;;;;;;8.10;1.00;;;;;;;-146.25;96.08;52380.38;2056393;28;20051;-70
2023/04/03 03:01:45;;;;;;;7.13;1.25;;;;;;;-146.25;95.67;52414.84;2049157;28;20168;-70
2023/04/03 03:02:49;;;;;;;4.38;0.95;;;;;;;-146.25;96.09;52394.56;2064811;28;20043;-70
2023/04/03 03:03:50;;;;;;;8.48;1.33;;;;;;;-146.25;95.82;52400.63;2072017;28;31345;-69
2023/04/03 03:04:54;;;;;;;4.65;1.02;;;;;;;-146.25;96.33;52366.16;2072536;28;27255;-70
2023/04/03 03:06:07;;;;;;;9.57;1.20;;;;;;;-146.25;96.52;52412.81;2072661;28;20193;-69
2023/04/03 03:07:09;;;;;;;6.10;1.38;;;;;;;-146.25;96.46;52402.66;2072459;28;26090;-70
2023/04/03 03:08:15;;;;;;;5.10;1.35;;;;;;;-146.25;96.69;52431.06;2056296;28;20166;-69
2023/04/03 03:09:16;;;;;;;7.35;1.10;;;;;;;-146.25;96.66;52427.00;2049238;28;20047;-69
2023/04/03 03:10:19;;;;;;;7.68;1.13;;;;;;;-146.25;96.86;52374.28;2063690;28;34592;-69
2023/04/03 03:11:20;;;;;;;3.67;1.17;;;;;;;-146.25;96.73;52376.31;2056311;28;20053;-69
2023/04/03 03:12:24;;;;;;;8.13;1.30;;;;;;;-146.25;96.63;52378.34;2064357;28;23502;-69
2023/04/03 03:13:25;;;;;;;7.35;1.25;;;;;;;-146.25;96.87;52372.25;2071650;28;34666;-69
2023/04/03 03:14:27;;;;;;;5.07;1.17;;;;;;;-146.25;96.87;52396.59;2072375;28;20050;-69
2023/04/03 03:15:29;;;;;;;5.30;1.27;;;;;;;-146.25;96.76;52384.41;2063864;28;33743;-69
2023/04/03 03:16:31;;;;;;;8.25;1.08;;;;;;;-146.25;96.61;52420.91;2071970;28;21625;-69
2023/04/03 03:17:33;;;;;;;6.05;0.82;;;;;;;-146.25;96.59;52382.38;2072108;28;29026;-69
2023/04/03 03:18:36;;;;;;;6.00;1.25;;;;;;;-146.25;96.62;52384.41;2072070;28;22407;-70
2023/04/03 03:19:37;;;;;;;5.03;1.05;;;;;;;-146.25;97.15;52408.75;2064504;28;20195;-69
2023/04/03 03:20:39;;;;;;;7.90;1.20;;;;;;;-146.25;96.94;52400.63;2063975;28;22272;-69
2023/04/03 03:21:41;;;;;;;7.07;1.50;;;;;;;-146.25;97.48;52380.38;2073296;28;20042;-69
2023/04/03 03:22:43;;;;;;;8.38;1.15;;;;;;;-146.25;97.96;52386.44;2073186;28;20865;-69
2023/04/03 03:23:45;;;;;;;5.57;1.20;;;;;;;-146.25;97.77;52386.44;2063931;28;26416;-69
2023/04/03 03:24:46;;;;;;;8.65;1.15;;;;;;;-146.25;97.43;52392.53;2063410;28;31134;-69
2023/04/03 03:25:49;;;;;;;6.03;1.23;;;;;;;-146.25;97.73;52408.75;2072383;28;20050;-69
2023/04/03 03:26:50;;;;;;;6.25;1.40;;;;;;;-146.25;97.38;52398.59;2071966;28;26210;-69
2023/04/03 03:27:52;;;;;;;6.70;1.15;;;;;;;-146.25;97.81;52420.91;2073386;28;20749;-69
2023/04/03 03:28:54;;;;;;;9.02;1.20;;;;;;;-146.25;97.57;52370.22;2072962;28;20102;-69
2023/04/03 03:29:56;;;;;;;3.72;0.90;;;;;;;-146.25;97.82;52366.16;2073088;28;20045;-69
2023/04/03 03:30:59;;;;;;;3.65;1.20;;;;;;;-146.25;97.64;52380.38;2064244;28;20938;-69
2023/04/03 03:32:01;;;;;;;10.80;1.40;;;;;;;-146.25;98.17;52420.91;2064152;28;20125;-68
2023/04/03 03:33:03;;;;;;;5.30;0.98;;;;;;;-146.25;98.25;52420.91;2064268;28;23018;-69
2023/04/03 03:34:05;;;;;;;8.13;1.42;;;;;;;-146.25;97.95;52404.69;2064011;28;20051;-68
2023/04/03 03:35:08;;;;;;;6.43;1.10;;;;;;;-146.25;98.20;52388.47;2064093;28;21375;-69
2023/04/03 03:36:12;;;;;;;7.70;1.17;;;;;;;-146.25;97.86;52410.78;2064242;28;25831;-69
2023/04/03 03:37:14;;;;;;;6.05;1.17;;;;;;;-146.25;98.08;52394.56;2072651;28;31263;-69
2023/04/03 03:38:15;;;;;;;8.05;1.60;;;;;;;-146.25;98.56;52396.59;2064246;28;20039;-68
2023/04/03 03:39:17;;;;;;;8.27;1.60;;;;;;;-146.25;98.71;52416.84;2064491;28;20939;-69
2023/04/03 03:40:19;;;;;;;8.23;1.15;;;;;;;-146.25;98.27;52406.72;2064120;28;20050;-69
2023/04/03 03:41:21;;;;;;;8.05;1.45;;;;;;;-146.25;99.23;52420.91;2063909;28;20916;-69
2023/04/03 03:42:23;;;;;;;5.65;1.50;;;;;;;-146.25;98.74;52416.84;2064667;28;24543;-68
2023/04/03 03:43:25;;;;;;;6.88;1.42;;;;;;;-146.25;99.41;52433.06;2063902;28;20043;-68
2023/04/03 03:44:29;;;;;;;7.65;1.30;;;;;;;-146.25;99.07;52392.53;2064735;28;20047;-68
2023/04/03 03:45:32;;;;;;;7.72;1.65;;;;;;;-146.25;99.24;52388.47;2055733;28;20047;-68
2023/04/03 03:46:33;;;;;;;5.95;1.48;;;;;;;-146.25;99.15;52392.53;2048091;28;24461;-68
2023/04/03 03:47:35;;;;;;;5.15;1.42;;;;;;;-146.25;98.37;52390.50;2064320;28;20039;-69
2023/04/03 03:48:37;;;;;;;7.90;1.52;;;;;;;-146.25;98.95;52408.75;2064122;28;20089;-69
2023/04/03 03:49:39;;;;;;;8.70;1.42;;;;;;;-146.25;98.85;52396.59;2064334;28;20820;-69
2023/04/03 03:50:40;;;;;;;7.63;1.05;;;;;;;-146.25;98.83;52360.09;2063960;28;20113;-69
2023/04/03 03:51:42;;;;;;;8.32;1.40;;;;;;;-146.25;99.38;52384.41;2064005;28;20182;-68
2023/04/03 03:52:46;;;;;;;5.25;1.20;;;;;;;-146.25;99.21;52372.25;2064072;28;20039;-69
2023/04/03 03:53:48;;;;;;;7.10;1.58;;;;;;;-146.25;99.59;52402.66;2072145;28;22005;-68
2023/04/03 03:54:52;;;;;;;4.80;1.25;;;;;;;-146.25;99.53;52378.34;2064494;28;20046;-69
2023/04/03 03:55:55;;;;;;;6.05;1.40;;;;;;;-146.25;99.16;52370.22;2056031;28;20882;-69
2023/04/03 03:56:59;;;;;;;4.43;1.17;;;;;;;-146.25;99.90;52386.44;2056565;28;20203;-69
2023/04/03 03:58:01;;;;;;;7.78;1.30;;;;;;;-146.25;99.97;52408.75;2064409;28;20233;-69
2023/04/03 03:59:04;;;;;;;6.18;1.33;;;;;;;-146.25;100.00;52416.84;2064250;28;20047;-69
2023/04/03 04:00:08;;;;;;;5.10;1.10;;;;;;;-146.25;100.00;52412.81;2056307;28;20055;-68
2023/04/03 04:01:16;;;;;;;4.28;0.77;;;;;;;-146.25;99.74;52392.53;2056452;28;20909;-69
2023/04/03 04:02:21;;;;;;;8.48;1.92;;;;;;;-146.25;99.68;52455.38;2065614;28;20035;-67
2023/04/03 04:03:23;;;;;;;8.40;1.48;;;;;;;-146.25;99.82;52406.72;2072330;28;20039;-68
2023/04/03 04:04:25;;;;;;;7.10;1.45;;;;;;;-146.25;100.00;52398.59;2072084;28;20074;-68
2023/04/03 04:05:27;;;;;;;7.32;1.42;;;;;;;-146.25;100.00;52378.34;2063842;28;20031;-69
2023/04/03 04:06:29;;;;;;;9.75;1.70;;;;;;;-146.25;100.00;52343.88;2056161;28;20809;-69
2023/04/03 04:07:34;;;;;;;7.72;1.50;;;;;;;-146.25;100.00;52394.56;2056607;28;21151;-69
2023/04/03 04:08:37;;;;;;;6.22;1.27;;;;;;;-146.25;100.00;52390.50;2055831;28;20868;-69
2023/04/03 04:09:44;;;;;;;6.72;1.48;;;;;;;-146.25;100.00;52400.63;2056169;28;20896;-69
2023/04/03 04:10:45;;;;;;;8.02;1.42;;;;;;;-146.25;100.00;52343.88;2064243;28;25355;-69
2023/04/03 04:11:49;;;;;;;6.28;1.70;;;;;;;-146.25;100.00;52422.94;2063771;28;20058;-69
2023/04/03 04:12:52;;;;;;;12.98;2.03;;;;;;;-146.25;100.00;52380.38;2063581;28;20046;-69
2023/04/03 04:13:59;;;;;;;5.22;1.63;;;;;;;-146.25;100.00;52400.63;2056399;28;20964;-69
2023/04/03 04:15:03;;;;;;;5.55;1.20;;;;;;;-146.25;100.00;52382.38;2064648;28;20873;-69
2023/04/03 04:16:06;;;;;;;7.90;1.65;;;;;;;-146.25;100.00;52349.94;2072000;28;20912;-69
2023/04/03 04:17:14;;;;;;;5.30;1.35;;;;;;;-146.25;100.00;52380.38;2064026;28;20054;-69
2023/04/03 04:18:17;;;;;;;7.15;1.65;;;;;;;-146.25;100.00;52396.59;2064676;28;20133;-69
2023/04/03 04:19:21;;;;;;;9.23;1.52;;;;;;;-146.25;100.00;52422.94;2063880;28;20193;-69
2023/04/03 04:20:23;;;;;;;6.25;1.30;;;;;;;-146.25;100.00;52424.97;2064110;28;20047;-69
2023/04/03 04:21:25;;;;;;;7.47;1.42;;;;;;;-146.25;100.00;52386.44;2072799;28;20038;-69
2023/04/03 04:22:28;;;;;;;8.88;1.75;;;;;;;-146.25;100.00;52386.44;2071839;28;20095;-69
2023/04/03 04:23:30;;;;;;;5.70;1.60;;;;;;;-146.25;100.00;52424.97;2072070;28;20046;-69
2023/04/03 04:24:33;;;;;;;6.30;1.60;;;;;;;-146.25;100.00;52424.97;2071567;28;20033;-69
2023/04/03 04:25:36;;;;;;;5.15;1.08;;;;;;;-146.25;100.00;52386.44;2063936;28;20043;-69
2023/04/03 04:26:39;;;;;;;6.13;1.40;;;;;;;-146.25;100.00;52433.06;2063836;28;20043;-69
2023/04/03 04:27:44;;;;;;;8.40;1.88;;;;;;;-146.25;100.00;52408.75;2064079;28;20919;-69
2023/04/03 04:28:48;;;;;;;9.30;1.50;;;;;;;-146.25;100.00;52429.03;2063884;28;20085;-70
2023/04/03 04:29:54;;;;;;;7.05;1.30;;;;;;;-146.25;100.00;52420.91;2063837;28;20051;-69
2023/04/03 04:30:57;;;;;;;6.90;1.63;;;;;;;-146.25;100.00;52388.47;2055877;28;20071;-69
2023/04/03 04:32:04;;;;;;;6.50;1.63;;;;;;;-146.25;100.00;52404.69;2055936;28;20043;-69
2023/04/03 04:33:08;;;;;;;6.47;1.30;;;;;;;-146.25;100.00;52388.47;2063376;28;20046;-69
2023/04/03 04:34:12;;;;;;;6.38;1.42;;;;;;;-146.25;100.00;52368.19;2056148;28;20044;-69
2023/04/03 04:35:14;;;;;;;4.22;1.20;;;;;;;-146.25;100.00;52398.59;2056042;28;20106;-69
2023/04/03 04:36:22;;;;;;;6.43;1.58;;;;;;;-146.25;100.00;52364.13;2064377;28;20897;-69
2023/04/03 04:37:23;;;;;;;6.55;1.52;;;;;;;-146.25;100.00;52435.09;2071887;28;20097;-69
2023/04/03 04:38:26;;;;;;;5.22;1.85;;;;;;;-146.25;100.00;52422.94;2071665;28;20043;-69
2023/04/03 04:39:28;;;;;;;4.82;1.70;;;;;;;-146.25;100.00;52410.78;2063672;28;20051;-69
2023/04/03 04:40:32;;;;;;;7.13;1.85;;;;;;;-146.25;100.00;52400.63;2063645;28;20039;-69
2023/04/03 04:41:34;;;;;;;8.20;2.20;;;;;;;-146.25;100.00;52402.66;2055554;28;20888;-69
2023/04/03 04:42:37;;;;;;;6.45;1.67;;;;;;;-146.25;100.00;52429.03;2055988;28;20097;-69
2023/04/03 04:43:40;;;;;;;6.38;1.58;;;;;;;-146.25;100.00;52402.66;2063834;28;20042;-69
2023/04/03 04:44:44;;;;;;;6.70;1.60;;;;;;;-146.25;100.00;52416.84;2063748;28;20055;-69
2023/04/03 04:45:47;;;;;;;6.63;1.85;;;;;;;-146.25;100.00;52400.63;2056017;28;20039;-70
2023/04/03 04:46:53;;;;;;;8.68;1.77;;;;;;;-146.25;100.00;52392.53;2064321;28;20038;-69
2023/04/03 04:47:57;;;;;;;5.40;1.60;;;;;;;-146.25;100.00;52408.75;2071797;28;20039;-70
2023/04/03 04:48:59;;;;;;;6.85;1.55;;;;;;;-146.25;100.00;52402.66;2063648;28;20161;-69
2023/04/03 04:50:05;;;;;;;8.40;2.17;;;;;;;-146.25;100.00;52408.75;2055821;28;21000;-70
2023/04/03 04:51:07;;;;;;;9.75;2.05;;;;;;;-146.25;100.00;52410.78;2063860;28;20145;-69
2023/04/03 04:52:11;;;;;;;6.75;1.65;;;;;;;-146.25;100.00;52368.19;2063225;28;20047;-69